Terminal Aerodrome Forecast
Issued by NWS Duluth, MN

Home | Current Version | Previous Version | Text Only | Print | Product List | Glossary On
Versions: 1 2 3 4 5 6 7 8 9 10 11 12 13 14 15 16 17 18 19
000
FTUS43 KDLH 181700
TAFDLH
TAF
KDLH 181734Z 1818/1918 08017G25KT P6SM SCT200
     FM190400 09015G22KT P6SM BKN100
     FM190900 11011KT 5SM -RA BR SCT015 OVC050
     FM191200 12010KT 3SM -RA BR OVC012
     FM191600 25006KT 4SM -DZ BR OVC008=

USA.gov is the U.S. government's official web portal to all federal, state and local government web resources and services.